Terminal Aerodrome Forecast
Issued by NWS

Home | Current Version | Previous Version | Text Only | Print | Product List | Glossary On
Versions: 1 2 3 4 5 6 7 8 9 10 11 12 13 14 15 16 17 18 19 20 21 22
482
FTUS46 KSEW 081726
TAFOLM
TAF
KOLM 081726Z 0818/0918 00000KT 1/4SM FG VV002
     FM081900 00000KT 3SM BR BKN004 BKN200
     FM082100 03004KT P6SM SCT250
     FM090600 04004KT 3SM BR SCT005
     FM090800 00000KT 1/2SM FG VV001=

USA.gov is the U.S. government's official web portal to all federal, state and local government web resources and services.